createdAt,value
2022-10-06T00:01:12.515Z,0
2022-10-06T00:06:44.508Z,0
2022-10-06T00:12:07.342Z,0
2022-10-06T00:17:30.269Z,0
2022-10-06T00:22:52.732Z,0
2022-10-06T00:28:15.870Z,0
2022-10-06T00:33:39.188Z,0
2022-10-06T00:44:30.078Z,0
2022-10-06T00:49:52.736Z,0
2022-10-06T00:55:18.234Z,2
2022-10-06T01:06:14.477Z,3
2022-10-06T01:11:37.154Z,0
2022-10-06T01:17:02.164Z,4
2022-10-06T01:22:26.953Z,0
2022-10-06T01:27:49.499Z,0
2022-10-06T01:38:37.521Z,0
2022-10-06T01:44:00.677Z,0
2022-10-06T01:49:23.133Z,0
2022-10-06T01:54:46.264Z,0
2022-10-06T02:00:09.709Z,0
2022-10-06T02:05:32.201Z,0
2022-10-06T02:10:54.743Z,0
2022-10-06T02:16:17.822Z,1
2022-10-06T02:22:07.087Z,0
2022-10-06T02:27:30.689Z,0
2022-10-06T02:32:53.414Z,0
2022-10-06T02:38:18.094Z,3
2022-10-06T02:43:40.784Z,3
2022-10-06T02:49:03.346Z,0
2022-10-06T02:54:49.036Z,0
2022-10-06T03:00:11.981Z,0
2022-10-06T03:08:18.298Z,0
2022-10-06T03:13:41.349Z,0
2022-10-06T03:19:03.874Z,0
2022-10-06T03:24:25.702Z,0
2022-10-06T03:29:48.147Z,0
2022-10-06T03:35:13.750Z,0
2022-10-06T03:40:36.551Z,0
2022-10-06T03:45:58.776Z,0
2022-10-06T03:51:26.629Z,0
2022-10-06T03:56:48.857Z,0
2022-10-06T04:18:46.172Z,0
2022-10-06T04:24:08.686Z,0
2022-10-06T04:29:38.542Z,0
2022-10-06T04:35:01.145Z,0
2022-10-06T04:40:29.541Z,0
2022-10-06T04:45:52.137Z,0
2022-10-06T04:51:14.635Z,0
2022-10-06T04:56:37.313Z,0
2022-10-06T05:02:00.414Z,0
2022-10-06T05:07:23.158Z,0
2022-10-06T05:12:53.523Z,0
2022-10-06T05:18:16.344Z,0
2022-10-06T05:23:38.947Z,0
2022-10-06T05:29:01.325Z,4
2022-10-06T05:39:50.305Z,26
2022-10-06T05:45:15.038Z,33.2
2022-10-06T05:50:38.028Z,37
2022-10-06T05:56:00.686Z,45.1
2022-10-06T06:01:26.947Z,61.6
2022-10-06T06:12:14.894Z,111.8
2022-10-06T06:17:37.605Z,118.7
2022-10-06T06:23:03.056Z,133.8
2022-10-06T06:28:29.191Z,146.2
2022-10-06T06:33:52.177Z,123.3
2022-10-06T06:39:14.915Z,178.4
2022-10-06T06:44:41.374Z,185
2022-10-06T06:50:12.324Z,195.4
2022-10-06T06:55:40.817Z,210.3
2022-10-06T07:01:03.673Z,212.1
2022-10-06T07:06:29.542Z,225.5
2022-10-06T07:22:43.559Z,291.9
2022-10-06T07:28:14.138Z,320.6
2022-10-06T07:33:37.219Z,376.7
2022-10-06T07:39:11.375Z,329.7
2022-10-06T07:44:34.735Z,350
2022-10-06T07:50:04.558Z,583.1
2022-10-06T08:00:50.214Z,672.2
2022-10-06T08:06:21.665Z,472
2022-10-06T08:11:44.409Z,2131.5
2022-10-06T08:17:07.405Z,2427.9
2022-10-06T08:22:33.892Z,2772
2022-10-06T08:27:57.357Z,2712.2
2022-10-06T08:33:24.276Z,2911
2022-10-06T08:38:47.103Z,3137.5
2022-10-06T08:44:09.875Z,2877.6
2022-10-06T08:49:32.521Z,2296.8
2022-10-06T08:54:58.699Z,1967.1
2022-10-06T09:00:23.169Z,1369.6
2022-10-06T09:05:51.983Z,1276.5
2022-10-06T09:16:41.775Z,2693.6
2022-10-06T09:22:05.783Z,2800.8
2022-10-06T09:27:30.360Z,2661.3
2022-10-06T09:32:53.317Z,2873.6
2022-10-06T09:38:16.015Z,2799.9
2022-10-06T09:43:47.979Z,3011.2
2022-10-06T09:54:36.022Z,2749.3
2022-10-06T10:05:42.286Z,2904.8
2022-10-06T10:11:05.418Z,2804.2
2022-10-06T10:16:31.451Z,3003
2022-10-06T10:22:05.346Z,2901.4
2022-10-06T10:27:28.312Z,2603.7
2022-10-06T10:32:50.981Z,3071.7
2022-10-06T10:38:15.501Z,3017.3
2022-10-06T10:43:42.582Z,2657
2022-10-06T10:49:05.288Z,2981.4
2022-10-06T10:54:27.944Z,2961.6
2022-10-06T10:59:58.168Z,2660.3
2022-10-06T11:05:29.200Z,2832.1
2022-10-06T11:11:00.838Z,2939.9
2022-10-06T11:16:24.078Z,3091.7
2022-10-06T11:21:46.985Z,3242.9
2022-10-06T11:27:18.992Z,3200.8
2022-10-06T11:32:41.777Z,3147.1
2022-10-06T11:38:04.809Z,3122.2
2022-10-06T11:43:28.051Z,3266.2
2022-10-06T11:49:43.435Z,3254.3
2022-10-06T11:55:06.534Z,3093
2022-10-06T12:00:31.966Z,3327.2
2022-10-06T12:06:29.202Z,3221.5
2022-10-06T12:17:20.332Z,3643.9
2022-10-06T12:22:43.209Z,3606.7
2022-10-06T12:28:06.277Z,3334.4
2022-10-06T12:33:30.319Z,3191.2
2022-10-06T12:38:58.275Z,3227
2022-10-06T12:44:21.244Z,2969.7
2022-10-06T12:49:43.823Z,2753.8
2022-10-06T12:55:08.769Z,2740.7
2022-10-06T13:00:31.836Z,2866.7
2022-10-06T13:06:00.875Z,2800.3
2022-10-06T13:11:23.826Z,2622.2
2022-10-06T13:16:52.278Z,2553.8
2022-10-06T13:22:15.447Z,2480.8
2022-10-06T13:27:37.953Z,2594.8
2022-10-06T13:33:09.663Z,2324.8
2022-10-06T13:38:32.422Z,2223.4
2022-10-06T13:43:55.093Z,2431.3
2022-10-06T14:05:41.618Z,2080.5
2022-10-06T14:16:34.166Z,1970.5
2022-10-06T14:21:56.809Z,1951.1
2022-10-06T14:27:19.108Z,2014.7
2022-10-06T14:32:44.167Z,1851.2
2022-10-06T14:38:06.810Z,1654.9
2022-10-06T14:43:29.097Z,1530.4
2022-10-06T14:48:51.614Z,1460.7
2022-10-06T14:54:13.875Z,487.3
2022-10-06T14:59:58.035Z,164.1
2022-10-06T15:05:20.251Z,131.1
2022-10-06T15:10:42.435Z,121.2
2022-10-06T15:16:04.907Z,110.9
2022-10-06T15:21:27.929Z,106.5
2022-10-06T15:26:55.818Z,102.9
2022-10-06T15:32:18.481Z,99.8
2022-10-06T15:37:41.044Z,92.7
2022-10-06T15:43:03.862Z,92.4
2022-10-06T15:59:11.559Z,80.8
2022-10-06T16:04:33.912Z,79.3
2022-10-06T16:09:56.907Z,70.3
2022-10-06T16:15:20.011Z,69.9
2022-10-06T16:20:42.825Z,66.4
2022-10-06T16:26:15.432Z,62.9
2022-10-06T16:31:38.331Z,56.5
2022-10-06T16:37:00.643Z,53.7
2022-10-06T16:47:59.966Z,45.2
2022-10-06T16:53:22.184Z,39.7
2022-10-06T16:58:59.480Z,33.2
2022-10-06T17:04:23.045Z,27
2022-10-06T17:10:21.691Z,19
2022-10-06T17:15:44.360Z,4
2022-10-06T17:21:48.280Z,0
2022-10-06T17:27:14.208Z,0
2022-10-06T17:32:37.549Z,0
2022-10-06T17:38:00.169Z,0
2022-10-06T17:43:28.882Z,0
2022-10-06T17:48:51.132Z,0
2022-10-06T17:54:13.435Z,0
2022-10-06T17:59:39.141Z,0
2022-10-06T18:05:01.533Z,0
2022-10-06T18:10:23.976Z,0
2022-10-06T18:15:46.506Z,0
2022-10-06T18:35:29.980Z,0
2022-10-06T18:41:21.214Z,0
2022-10-06T18:46:43.931Z,0
2022-10-06T18:52:13.923Z,0
2022-10-06T18:57:39.360Z,0
2022-10-06T19:03:02.130Z,0
2022-10-06T19:08:24.634Z,0
2022-10-06T19:13:47.246Z,0
2022-10-06T19:19:40.539Z,0
2022-10-06T19:25:03.679Z,0
2022-10-06T19:30:26.613Z,0
2022-10-06T19:36:07.055Z,0
2022-10-06T19:41:30.353Z,0
2022-10-06T19:46:52.732Z,0
2022-10-06T19:52:15.098Z,0
2022-10-06T20:03:00.274Z,0
2022-10-06T20:08:31.881Z,0
2022-10-06T20:13:54.750Z,0
2022-10-06T20:30:11.386Z,0
2022-10-06T20:35:33.854Z,0
2022-10-06T20:40:56.348Z,0
2022-10-06T20:46:19.162Z,0
2022-10-06T20:51:44.813Z,0
2022-10-06T20:57:07.341Z,0
2022-10-06T21:02:30.211Z,0
2022-10-06T21:07:52.733Z,0
2022-10-06T21:13:14.978Z,0
2022-10-06T21:18:39.782Z,0
2022-10-06T21:24:02.400Z,0
2022-10-06T21:29:24.962Z,0
2022-10-06T21:45:35.336Z,0
2022-10-06T21:56:23.648Z,0
2022-10-06T22:01:48.894Z,0
2022-10-06T22:07:11.306Z,0
2022-10-06T22:12:33.605Z,0
2022-10-06T22:28:49.788Z,0
2022-10-06T22:34:20.599Z,0
2022-10-06T22:39:43.945Z,1
2022-10-06T22:45:06.103Z,0
2022-10-06T22:50:28.565Z,0
2022-10-06T22:55:53.417Z,1
2022-10-06T23:01:37.883Z,0
2022-10-06T23:07:00.521Z,0
2022-10-06T23:12:22.816Z,1
2022-10-06T23:17:46.753Z,0
2022-10-06T23:28:32.267Z,0
2022-10-06T23:33:54.671Z,0
2022-10-06T23:39:17.370Z,0
2022-10-06T23:44:39.704Z,0
2022-10-06T23:50:01.969Z,1
2022-10-06T23:55:24.358Z,1
